Time;durP1;ratioP1;P1;durP2;ratioP2;P2;SDS_P1;SDS_P2;PMS_P1;PMS_P2;Temp;Humidity;BMP_temperature;BMP_pressure;BME280_temperature;BME280_humidity;BME280_pressure;Samples;Min_cycle;Max_cycle;Signal;HPM_P1;HPM_P2
2021/06/12 00:00:30;;;;;;;11.23;10.33;;;17.10;99.90;;;;;;5033105;28;20230;-76
2021/06/12 00:02:57;;;;;;;11.13;10.17;;;17.10;99.90;;;;;;5028902;28;20195;-76
2021/06/12 00:05:24;;;;;;;10.93;10.03;;;17.10;99.90;;;;;;5033634;28;20213;-76
2021/06/12 00:07:50;;;;;;;11.10;10.10;;;17.10;99.90;;;;;;5049922;28;20201;-76
2021/06/12 00:10:20;;;;;;;11.30;10.40;;;17.10;99.90;;;;;;5048757;28;20194;-75
2021/06/12 00:12:47;;;;;;;10.50;9.70;;;17.10;99.90;;;;;;5028537;28;20732;-76
2021/06/12 00:15:18;;;;;;;11.43;10.33;;;17.10;99.90;;;;;;5029427;28;20737;-76
2021/06/12 00:17:45;;;;;;;10.97;10.07;;;17.10;99.90;;;;;;5026458;28;20237;-76
2021/06/12 00:20:14;;;;;;;11.60;10.60;;;17.00;99.90;;;;;;5049312;28;20212;-76
2021/06/12 00:22:42;;;;;;;11.47;10.57;;;17.00;99.90;;;;;;5046760;28;20196;-76
2021/06/12 00:25:10;;;;;;;11.90;11.00;;;17.00;99.90;;;;;;5045958;28;20280;-76
2021/06/12 00:27:39;;;;;;;12.47;11.47;;;16.90;99.90;;;;;;5045474;28;21677;-76
2021/06/12 00:30:06;;;;;;;12.33;11.30;;;16.90;99.90;;;;;;5049814;28;20602;-76
2021/06/12 00:32:34;;;;;;;11.70;10.60;;;16.90;99.90;;;;;;5046055;28;20213;-76
2021/06/12 00:35:01;;;;;;;11.70;10.80;;;16.90;99.90;;;;;;5049691;28;20189;-76
2021/06/12 00:37:27;;;;;;;11.30;10.40;;;16.80;99.90;;;;;;5051469;28;20241;-76
2021/06/12 00:39:54;;;;;;;11.60;10.70;;;16.80;99.90;;;;;;5053170;28;20208;-76
2021/06/12 00:42:20;;;;;;;11.63;10.73;;;16.80;99.90;;;;;;5044939;28;20241;-76
2021/06/12 00:44:47;;;;;;;11.83;10.83;;;16.80;99.90;;;;;;5046186;28;20204;-76
2021/06/12 00:47:13;;;;;;;11.87;10.87;;;16.70;99.90;;;;;;5026350;28;20209;-76
2021/06/12 00:49:41;;;;;;;11.47;10.50;;;16.70;99.90;;;;;;5048588;28;20204;-76
2021/06/12 00:52:07;;;;;;;11.43;10.53;;;16.70;99.90;;;;;;5049453;28;20219;-76
2021/06/12 00:54:35;;;;;;;10.53;9.63;;;16.70;99.90;;;;;;5052063;28;20208;-76
2021/06/12 00:57:03;;;;;;;11.67;10.67;;;16.70;99.90;;;;;;5047890;28;20206;-76
2021/06/12 00:59:29;;;;;;;11.00;10.10;;;16.70;99.90;;;;;;5028846;28;20273;-76
2021/06/12 01:01:55;;;;;;;12.83;11.83;;;16.60;99.90;;;;;;5052463;28;20216;-76
2021/06/12 01:04:22;;;;;;;9.47;8.67;;;16.60;99.90;;;;;;5053182;28;20190;-77
2021/06/12 01:06:50;;;;;;;11.40;10.40;;;16.60;99.90;;;;;;5046301;28;20556;-76
2021/06/12 01:09:17;;;;;;;10.07;9.27;;;16.60;99.90;;;;;;5044862;28;20233;-76
2021/06/12 01:11:55;;;;;;;11.37;10.47;;;16.60;99.90;;;;;;5044539;28;20214;-76
2021/06/12 01:14:25;;;;;;;11.30;10.37;;;16.50;99.90;;;;;;5031318;28;20198;-76
2021/06/12 01:16:55;;;;;;;10.57;9.67;;;16.50;99.90;;;;;;5048203;28;20198;-76
2021/06/12 01:19:35;;;;;;;11.10;10.20;;;16.50;99.90;;;;;;5047163;28;20218;-75
2021/06/12 01:22:07;;;;;;;10.37;9.57;;;16.50;99.90;;;;;;5048903;28;20231;-75
2021/06/12 01:25:00;;;;;;;10.90;10.10;;;16.50;99.90;;;;;;5050151;28;20209;-76
2021/06/12 01:28:08;;;;;;;10.57;9.73;;;16.50;99.90;;;;;;5032004;28;20294;-76
2021/06/12 01:30:38;;;;;;;10.80;10.00;;;16.50;99.90;;;;;;5047300;28;20228;-76
2021/06/12 01:33:07;;;;;;;11.17;10.30;;;16.50;99.90;;;;;;5050076;28;20205;-75
2021/06/12 01:35:35;;;;;;;10.33;9.50;;;16.50;99.90;;;;;;5051154;28;20202;-75
2021/06/12 01:38:04;;;;;;;11.20;10.23;;;16.40;99.90;;;;;;5047893;28;20197;-76
2021/06/12 01:40:32;;;;;;;10.70;9.80;;;16.40;99.90;;;;;;5046556;28;20219;-76
2021/06/12 01:43:00;;;;;;;10.40;9.40;;;16.30;99.90;;;;;;5029145;28;20208;-76
2021/06/12 01:45:27;;;;;;;10.53;9.63;;;16.30;99.90;;;;;;5030900;28;20220;-76
2021/06/12 01:47:56;;;;;;;10.70;9.70;;;16.30;99.90;;;;;;5044869;28;20194;-76
2021/06/12 01:50:23;;;;;;;10.47;9.67;;;16.30;99.90;;;;;;5048951;28;20219;-76
2021/06/12 01:52:52;;;;;;;10.73;9.83;;;16.20;99.90;;;;;;5029331;28;20604;-76
2021/06/12 01:55:21;;;;;;;10.20;9.33;;;16.30;99.90;;;;;;5046963;28;20200;-76
2021/06/12 01:57:49;;;;;;;10.60;9.70;;;16.20;99.90;;;;;;5045909;28;20581;-76
2021/06/12 02:00:16;;;;;;;10.50;9.67;;;16.20;99.90;;;;;;5045801;28;20196;-75
2021/06/12 02:02:45;;;;;;;10.70;9.90;;;16.20;99.90;;;;;;5023439;28;20243;-76
2021/06/12 02:05:17;;;;;;;10.37;9.47;;;16.20;99.90;;;;;;5047818;28;20267;-76
2021/06/12 02:07:45;;;;;;;11.00;10.10;;;16.10;99.90;;;;;;5009915;28;20595;-75
2021/06/12 02:10:18;;;;;;;11.43;10.23;;;16.10;99.90;;;;;;5047819;28;20214;-76
2021/06/12 02:12:44;;;;;;;11.57;10.57;;;16.00;99.90;;;;;;5043826;28;20228;-76
2021/06/12 02:15:12;;;;;;;12.03;10.93;;;16.00;99.90;;;;;;5047443;28;20204;-76
2021/06/12 02:17:39;;;;;;;11.10;10.23;;;16.00;99.90;;;;;;5047172;28;20192;-76
2021/06/12 02:20:08;;;;;;;11.87;10.67;;;16.00;99.90;;;;;;5051293;28;20198;-76
2021/06/12 02:22:41;;;;;;;11.30;10.30;;;16.00;99.90;;;;;;5050739;28;20198;-76
2021/06/12 02:25:09;;;;;;;11.77;10.87;;;16.00;99.90;;;;;;5046882;28;20660;-76
2021/06/12 02:27:36;;;;;;;8.50;7.70;;;16.00;99.90;;;;;;5044918;28;20210;-75
2021/06/12 02:30:05;;;;;;;8.90;8.07;;;16.00;99.90;;;;;;5025809;28;20224;-76
2021/06/12 02:32:34;;;;;;;8.57;7.67;;;16.00;99.90;;;;;;5025702;28;20211;-76
2021/06/12 02:35:00;;;;;;;8.13;7.40;;;16.00;99.90;;;;;;5029703;28;20215;-76
2021/06/12 02:37:27;;;;;;;8.30;7.50;;;16.00;99.90;;;;;;5046268;28;20196;-76
2021/06/12 02:39:54;;;;;;;8.53;7.50;;;15.90;99.90;;;;;;5051064;28;20566;-76
2021/06/12 02:42:21;;;;;;;8.23;7.43;;;15.90;99.90;;;;;;5043351;28;20227;-76
2021/06/12 02:44:47;;;;;;;8.00;7.20;;;15.90;99.90;;;;;;5050775;28;20195;-76
2021/06/12 02:47:15;;;;;;;9.13;8.20;;;15.90;99.90;;;;;;5040982;28;20199;-76
2021/06/12 02:49:43;;;;;;;8.40;7.60;;;15.90;99.90;;;;;;5023832;28;20203;-75
2021/06/12 02:52:14;;;;;;;8.60;7.80;;;15.90;99.90;;;;;;5046598;28;20223;-76
2021/06/12 02:54:43;;;;;;;8.90;8.10;;;16.00;99.90;;;;;;5046665;28;20619;-76
2021/06/12 02:57:12;;;;;;;9.17;8.37;;;15.90;99.90;;;;;;5035310;28;20204;-76
2021/06/12 02:59:43;;;;;;;9.53;8.63;;;15.90;99.90;;;;;;5036794;28;20601;-76
2021/06/12 03:02:11;;;;;;;9.73;8.83;;;15.90;99.90;;;;;;5037045;28;20708;-76
2021/06/12 03:04:39;;;;;;;8.30;7.60;;;15.90;99.90;;;;;;5040203;28;20202;-76
2021/06/12 03:07:06;;;;;;;8.80;8.00;;;15.90;99.90;;;;;;5018235;28;20680;-76
2021/06/12 03:09:32;;;;;;;9.70;8.77;;;15.90;99.90;;;;;;5023721;28;20256;-76
2021/06/12 03:11:59;;;;;;;9.17;8.33;;;15.80;99.90;;;;;;5038243;28;20272;-76
2021/06/12 03:14:31;;;;;;;9.73;8.83;;;15.80;99.90;;;;;;5030029;28;20227;-76
2021/06/12 03:16:58;;;;;;;8.97;7.93;;;15.80;99.90;;;;;;5026610;28;20932;-76
2021/06/12 03:19:26;;;;;;;8.60;7.80;;;15.80;99.90;;;;;;5033362;28;20204;-77
2021/06/12 03:21:53;;;;;;;9.37;8.50;;;15.70;99.90;;;;;;5042734;28;20215;-78
2021/06/12 03:24:20;;;;;;;9.37;8.57;;;15.70;99.90;;;;;;5043616;28;20204;-77
2021/06/12 03:26:47;;;;;;;10.13;9.13;;;15.70;99.90;;;;;;5032681;28;20662;-77
2021/06/12 03:29:14;;;;;;;9.33;8.47;;;15.70;99.90;;;;;;5026793;28;20233;-77
2021/06/12 03:31:43;;;;;;;9.93;8.93;;;15.60;99.90;;;;;;5030757;28;20231;-75
2021/06/12 03:34:09;;;;;;;9.73;8.83;;;15.60;99.90;;;;;;5045728;28;20203;-76
2021/06/12 03:36:36;;;;;;;9.00;8.10;;;15.60;99.90;;;;;;5050873;28;20196;-75
2021/06/12 03:39:04;;;;;;;9.47;8.53;;;15.60;99.90;;;;;;5028135;28;20207;-76
2021/06/12 03:41:30;;;;;;;9.57;8.67;;;15.60;99.90;;;;;;5021942;28;20218;-76
2021/06/12 03:43:57;;;;;;;9.17;8.17;;;15.60;99.90;;;;;;5039675;28;20195;-75
2021/06/12 03:46:24;;;;;;;8.73;7.93;;;15.60;99.90;;;;;;5027622;28;20210;-76
2021/06/12 03:48:52;;;;;;;8.73;7.93;;;15.60;99.90;;;;;;5047571;28;20245;-76
2021/06/12 03:51:20;;;;;;;9.30;8.40;;;15.70;99.90;;;;;;5030604;28;20236;-75
2021/06/12 03:53:47;;;;;;;8.90;8.00;;;15.70;99.90;;;;;;5033570;28;20203;-75
2021/06/12 03:56:15;;;;;;;8.63;7.83;;;15.70;99.90;;;;;;5030922;28;20204;-76
2021/06/12 03:58:43;;;;;;;8.17;7.30;;;15.70;99.90;;;;;;5040863;28;20203;-75
2021/06/12 04:01:12;;;;;;;7.70;7.00;;;15.70;99.90;;;;;;5054167;28;20756;-76
2021/06/12 04:03:39;;;;;;;8.37;7.67;;;15.70;99.90;;;;;;5031617;28;20195;-76
2021/06/12 04:06:07;;;;;;;8.93;7.60;;;15.80;99.90;;;;;;5043556;28;20204;-76
2021/06/12 04:08:33;;;;;;;7.50;6.80;;;15.80;99.90;;;;;;5027573;28;20204;-75
2021/06/12 04:11:00;;;;;;;8.07;7.30;;;15.80;99.90;;;;;;5031372;28;20219;-76
2021/06/12 04:13:26;;;;;;;8.00;7.20;;;15.80;99.90;;;;;;5027941;28;20680;-75
2021/06/12 04:15:53;;;;;;;8.10;7.37;;;15.80;99.90;;;;;;5048260;28;20320;-78
2021/06/12 04:18:19;;;;;;;7.17;6.50;;;15.80;99.90;;;;;;5036599;28;20200;-75
2021/06/12 04:20:45;;;;;;;8.37;7.57;;;15.90;99.90;;;;;;5033963;28;20224;-75
2021/06/12 04:23:13;;;;;;;7.93;7.23;;;16.00;99.90;;;;;;5050275;28;20668;-76
2021/06/12 04:25:40;;;;;;;8.13;7.33;;;16.00;99.90;;;;;;5033644;28;20204;-76
2021/06/12 04:28:06;;;;;;;7.20;6.40;;;16.10;99.90;;;;;;5042676;28;20193;-76
2021/06/12 04:30:33;;;;;;;8.07;7.37;;;16.20;99.90;;;;;;5048468;28;20235;-76
2021/06/12 04:33:01;;;;;;;7.53;6.83;;;16.30;99.90;;;;;;5044853;28;20604;-76
2021/06/12 04:35:29;;;;;;;8.07;7.37;;;16.30;99.90;;;;;;5032976;28;20583;-76
2021/06/12 04:37:58;;;;;;;7.63;6.93;;;16.30;99.90;;;;;;5051139;28;20656;-75
2021/06/12 04:40:27;;;;;;;7.40;6.80;;;16.30;99.90;;;;;;5040790;28;20236;-76
2021/06/12 04:42:54;;;;;;;7.37;6.67;;;16.30;99.90;;;;;;5030803;28;20206;-76
2021/06/12 04:45:20;;;;;;;7.20;6.60;;;16.40;99.90;;;;;;5034166;28;20735;-76
2021/06/12 04:47:46;;;;;;;7.13;6.53;;;16.30;99.90;;;;;;5032320;28;20199;-76
2021/06/12 04:50:14;;;;;;;8.10;7.40;;;16.40;99.90;;;;;;5046626;28;20266;-76
2021/06/12 04:52:47;;;;;;;7.60;6.90;;;16.40;99.90;;;;;;5058176;23;20702;-81
2021/06/12 04:55:39;;;;;;;7.90;7.13;;;16.40;99.90;;;;;;5033077;28;20205;-80
2021/06/12 04:58:21;;;;;;;7.57;6.90;;;16.50;99.90;;;;;;5055064;28;20440;-80
2021/06/12 05:01:00;;;;;;;10.33;9.53;;;16.70;99.90;;;;;;5034210;28;20207;-80
2021/06/12 05:03:44;;;;;;;10.40;9.60;;;16.80;99.90;;;;;;5008719;28;20203;-77
2021/06/12 05:24:34;;;;;;;9.20;8.50;;;18.10;99.90;;;;;;4988652;28;20221;-81
2021/06/12 06:27:00;;;;;;;7.93;7.23;;;22.80;99.90;;;;;;4887069;29;20223;-78
2021/06/12 06:34:20;;;;;;;7.97;7.07;;;23.20;99.90;;;;;;4916975;29;20706;-78
2021/06/12 06:40:39;;;;;;;6.30;4.63;;;24.10;99.90;;;;;;4949111;29;20652;-80
2021/06/12 06:43:18;;;;;;;5.87;4.90;;;24.80;99.90;;;;;;4966511;28;20648;-81
2021/06/12 06:45:48;;;;;;;7.50;6.90;;;25.10;99.90;;;;;;4954349;29;20684;-78
2021/06/12 07:06:24;;;;;;;7.93;7.23;;;26.90;99.90;;;;;;5327785;23;20376;-81
2021/06/12 07:09:24;;;;;;;7.87;7.27;;;27.20;99.90;;;;;;4978776;28;20189;-81
2021/06/12 07:11:59;;;;;;;8.00;7.30;;;27.30;99.90;;;;;;4963770;28;20242;-82
2021/06/12 07:17:39;;;;;;;8.27;7.67;;;27.80;99.90;;;;;;4951562;29;20210;-83
2021/06/12 08:43:35;;;;;;;8.00;7.30;;;32.10;99.90;;;;;;5145524;23;20233;-77
2021/06/12 08:49:32;;;;;;;7.30;6.73;;;31.90;99.90;;;;;;4961271;28;20698;-77
2021/06/12 08:51:59;;;;;;;7.37;6.77;;;32.10;99.90;;;;;;4970892;28;20219;-78
2021/06/12 08:54:58;;;;;;;7.13;6.63;;;31.70;99.90;;;;;;4954624;28;20242;-78
2021/06/12 08:57:28;;;;;;;7.43;6.73;;;31.60;99.80;;;;;;4963810;28;20208;-78
2021/06/12 09:00:26;;;;;;;;;;;;;;;;;;;;;
2021/06/12 09:03:47;;;;;;;7.67;7.07;;;30.80;99.90;;;;;;4946123;28;20215;-78
2021/06/12 09:09:57;;;;;;;8.50;7.73;;;31.10;99.90;;;;;;4940748;28;20217;-78
2021/06/12 09:12:59;;;;;;;8.83;8.17;;;31.50;99.60;;;;;;4959981;28;20226;-77
2021/06/12 09:15:40;;;;;;;7.13;6.63;;;31.90;99.20;;;;;;4955359;28;20210;-78
2021/06/12 09:18:34;;;;;;;7.10;6.60;;;32.30;98.90;;;;;;4958808;28;20205;-77
2021/06/12 09:21:22;;;;;;;7.30;6.70;;;32.70;98.40;;;;;;4950354;29;20261;-78
2021/06/12 09:26:51;;;;;;;6.67;6.17;;;32.90;95.90;;;;;;4945282;28;20269;-77
2021/06/12 09:30:02;;;;;;;6.67;6.20;;;32.50;96.40;;;;;;4958003;28;20631;-77
2021/06/12 09:32:47;;;;;;;7.13;6.53;;;32.40;97.70;;;;;;4957769;28;20734;-77
2021/06/12 09:35:37;;;;;;;6.67;6.17;;;32.60;97.30;;;;;;4955686;28;20257;-78
2021/06/12 09:38:23;;;;;;;7.00;6.50;;;32.70;96.80;;;;;;4963033;28;20199;-78
2021/06/12 09:40:50;;;;;;;6.73;6.20;;;32.90;97.00;;;;;;4943871;28;20215;-78
2021/06/12 09:43:29;;;;;;;6.93;6.43;;;33.10;96.50;;;;;;4958233;28;20214;-78
2021/06/12 09:45:57;;;;;;;7.00;6.40;;;33.50;96.60;;;;;;4965646;28;20202;-77
2021/06/12 09:48:30;;;;;;;6.97;6.47;;;33.50;95.20;;;;;;4945108;28;20256;-78
2021/06/12 09:51:14;;;;;;;7.22;6.60;;;33.30;95.70;;;;;;4958103;28;20219;-77
2021/06/12 09:53:51;;;;;;;6.70;6.20;;;32.90;95.90;;;;;;4947052;28;20627;-80
2021/06/12 09:56:23;;;;;;;8.77;7.37;;;32.30;95.90;;;;;;4954666;28;20206;-77
2021/06/12 09:59:21;;;;;;;9.33;8.63;;;31.70;96.50;;;;;;4954406;28;20206;-78
2021/06/12 10:01:51;;;;;;;9.20;8.60;;;31.20;97.80;;;;;;4956572;28;20226;-83
2021/06/12 10:04:24;;;;;;;9.50;8.73;;;30.80;97.90;;;;;;4965752;28;20198;-82
2021/06/12 10:06:53;;;;;;;8.43;7.83;;;31.00;98.90;;;;;;4949148;28;20202;-82
2021/06/12 10:09:22;;;;;;;8.30;7.70;;;31.50;98.00;;;;;;4961377;28;20202;-82
2021/06/12 10:22:41;;;;;;;6.87;6.27;;;33.10;95.10;;;;;;5769603;23;20839;-81
2021/06/12 10:25:11;;;;;;;6.68;6.07;;;33.20;93.30;;;;;;4973245;28;20204;-83
2021/06/12 11:05:28;;;;;;;8.37;7.87;;;30.90;94.20;;;;;;4880381;23;20655;-82
2021/06/12 11:08:14;;;;;;;8.40;7.80;;;30.40;94.60;;;;;;4975503;28;20216;-81
2021/06/12 11:10:41;;;;;;;7.50;7.00;;;30.40;95.20;;;;;;4976464;28;20198;-81
2021/06/12 11:13:19;;;;;;;7.53;6.97;;;30.50;95.80;;;;;;4977063;28;20197;-82
2021/06/12 11:15:46;;;;;;;7.50;7.00;;;30.50;94.80;;;;;;4973224;28;20225;-82
2021/06/12 11:18:21;;;;;;;7.50;7.00;;;30.20;95.00;;;;;;4958389;29;20656;-82
2021/06/12 11:21:06;;;;;;;8.20;7.60;;;30.30;95.50;;;;;;4949726;29;20695;-81
2021/06/12 11:23:46;;;;;;;7.03;6.63;;;30.50;95.60;;;;;;4956044;29;20198;-82
2021/06/12 11:26:14;;;;;;;7.13;6.63;;;30.60;94.40;;;;;;4957080;28;20741;-80
2021/06/12 11:28:42;;;;;;;7.00;6.60;;;30.50;94.50;;;;;;4957855;29;20258;-80
2021/06/12 11:31:29;;;;;;;7.63;7.00;;;30.30;94.90;;;;;;4954615;29;20199;-81
2021/06/12 11:34:29;;;;;;;7.80;7.20;;;30.10;95.60;;;;;;4956281;28;20199;-81
2021/06/12 11:37:19;;;;;;;7.20;6.80;;;30.10;95.70;;;;;;4957323;28;20218;-81
2021/06/12 11:39:52;;;;;;;7.00;6.60;;;30.50;94.90;;;;;;4950668;29;20198;-81
2021/06/12 11:42:18;;;;;;;7.30;6.70;;;30.60;93.90;;;;;;4957225;29;20274;-81
2021/06/12 11:44:45;;;;;;;7.17;6.67;;;30.40;93.70;;;;;;4958304;28;20673;-81
2021/06/12 11:47:11;;;;;;;6.90;6.50;;;30.20;93.60;;;;;;4957369;29;20205;-81
2021/06/12 11:49:48;;;;;;;7.23;6.70;;;30.10;94.50;;;;;;4958467;29;20202;-81
2021/06/12 11:52:16;;;;;;;7.83;7.30;;;30.10;94.30;;;;;;4957843;29;20206;-81
2021/06/12 11:54:42;;;;;;;7.60;7.10;;;30.00;93.80;;;;;;4957702;28;20242;-81
2021/06/12 11:57:09;;;;;;;7.90;7.23;;;30.00;94.00;;;;;;4957782;29;20210;-79
2021/06/12 11:59:36;;;;;;;7.63;7.13;;;30.20;94.80;;;;;;4958378;28;20202;-81
2021/06/12 12:02:05;;;;;;;7.77;7.10;;;30.30;94.60;;;;;;4958045;28;20222;-81
2021/06/12 12:04:34;;;;;;;7.27;6.77;;;30.40;94.60;;;;;;4957797;28;20648;-80
2021/06/12 12:07:02;;;;;;;6.97;6.47;;;30.30;94.00;;;;;;4953390;29;20206;-83
2021/06/12 12:09:31;;;;;;;7.03;6.47;;;30.40;94.60;;;;;;4959671;28;20202;-81
2021/06/12 12:11:59;;;;;;;7.47;6.97;;;30.50;93.00;;;;;;4954867;28;20209;-81
2021/06/12 12:14:30;;;;;;;6.60;6.20;;;30.60;93.30;;;;;;4951926;29;20202;-81
2021/06/12 12:16:58;;;;;;;6.90;6.50;;;30.90;92.90;;;;;;4955457;29;20202;-80
2021/06/12 12:19:24;;;;;;;6.70;6.30;;;30.80;92.60;;;;;;4955880;29;20217;-80
2021/06/12 12:21:53;;;;;;;7.40;6.90;;;30.70;93.10;;;;;;4955579;29;20226;-80
2021/06/12 12:24:20;;;;;;;7.30;6.80;;;30.70;93.30;;;;;;4957558;28;20194;-80
2021/06/12 12:27:01;;;;;;;6.70;6.30;;;30.50;93.10;;;;;;4954090;28;20230;-81
2021/06/12 12:29:30;;;;;;;7.17;6.67;;;30.60;93.50;;;;;;4969950;28;20233;-80
2021/06/12 12:31:59;;;;;;;6.80;6.40;;;30.60;93.20;;;;;;4945839;29;20201;-82
2021/06/12 12:34:29;;;;;;;6.53;6.13;;;30.70;93.00;;;;;;4941502;29;20261;-81
2021/06/12 12:36:56;;;;;;;6.47;6.07;;;30.80;92.00;;;;;;4938510;29;20221;-81
2021/06/12 12:39:23;;;;;;;7.17;6.77;;;30.80;92.90;;;;;;4941579;29;20214;-81
2021/06/12 12:41:56;;;;;;;6.80;6.40;;;30.70;92.00;;;;;;4952460;29;20648;-80
2021/06/12 12:44:24;;;;;;;6.80;6.30;;;30.80;92.00;;;;;;4960611;29;20202;-79
2021/06/12 12:46:52;;;;;;;6.80;6.40;;;30.80;92.40;;;;;;4956543;28;20724;-80
2021/06/12 12:49:20;;;;;;;6.50;6.10;;;30.60;93.10;;;;;;4957264;28;20214;-80
2021/06/12 12:51:54;;;;;;;7.20;6.70;;;30.40;91.80;;;;;;4959568;29;20195;-80
2021/06/12 12:54:21;;;;;;;7.10;6.60;;;30.50;92.20;;;;;;4954726;29;20202;-80
2021/06/12 12:56:50;;;;;;;6.90;6.50;;;30.60;92.30;;;;;;4958897;28;20246;-80
2021/06/12 12:59:33;;;;;;;6.90;6.50;;;30.50;92.40;;;;;;4957613;29;20202;-81
2021/06/12 13:02:00;;;;;;;6.73;6.33;;;30.40;91.80;;;;;;4953418;29;20222;-79
2021/06/12 13:04:32;;;;;;;6.47;6.07;;;30.50;91.00;;;;;;4954210;28;20207;-80
2021/06/12 13:07:22;;;;;;;7.00;6.40;;;30.70;91.40;;;;;;4956676;29;20210;-81
2021/06/12 13:10:05;;;;;;;6.87;6.27;;;30.80;91.30;;;;;;4949039;29;20703;-80
2021/06/12 13:12:32;;;;;;;6.40;6.00;;;30.60;91.90;;;;;;4956633;28;20195;-76
2021/06/12 13:15:01;;;;;;;6.40;6.00;;;30.50;92.20;;;;;;4955054;28;20245;-77
2021/06/12 13:17:29;;;;;;;6.63;6.17;;;30.50;91.50;;;;;;4956593;29;20683;-77
2021/06/12 13:19:59;;;;;;;6.63;5.97;;;30.40;91.30;;;;;;4956058;29;20660;-78
2021/06/12 13:22:28;;;;;;;6.60;6.20;;;30.40;90.60;;;;;;4954891;28;20290;-77
2021/06/12 13:25:08;;;;;;;6.53;6.13;;;30.40;91.10;;;;;;4954416;28;20751;-77
2021/06/12 13:27:47;;;;;;;7.17;6.40;;;30.20;91.10;;;;;;4953892;28;20210;-77
2021/06/12 13:30:37;;;;;;;7.00;6.40;;;30.00;91.50;;;;;;4955149;29;20198;-76
2021/06/12 13:33:10;;;;;;;6.40;5.90;;;30.20;91.80;;;;;;4950807;29;20198;-77
2021/06/12 13:35:43;;;;;;;6.33;5.93;;;30.10;91.40;;;;;;4954800;28;20227;-77
2021/06/12 13:38:11;;;;;;;7.27;6.60;;;30.20;91.60;;;;;;4954331;29;20213;-77
2021/06/12 13:40:40;;;;;;;6.93;6.33;;;30.10;90.90;;;;;;4953249;29;20206;-77
2021/06/12 13:43:14;;;;;;;6.03;5.73;;;30.00;90.70;;;;;;4954348;29;20555;-77
2021/06/12 13:45:42;;;;;;;6.40;5.97;;;29.80;90.30;;;;;;4953860;28;20272;-77
2021/06/12 13:48:09;;;;;;;6.40;6.00;;;29.70;91.10;;;;;;4954361;28;20217;-77
2021/06/12 13:50:35;;;;;;;6.50;6.10;;;29.70;92.20;;;;;;4954695;29;20191;-77
2021/06/12 13:53:02;;;;;;;6.27;5.77;;;29.60;91.90;;;;;;4953224;29;20564;-77
2021/06/12 13:55:28;;;;;;;6.27;5.87;;;29.60;91.50;;;;;;4951890;28;20583;-77
2021/06/12 13:57:54;;;;;;;5.97;5.67;;;29.50;90.60;;;;;;4952459;29;20198;-77
2021/06/12 14:00:21;;;;;;;6.40;6.00;;;29.40;91.60;;;;;;4953581;29;20337;-77
2021/06/12 14:02:49;;;;;;;6.43;5.93;;;29.40;91.60;;;;;;4953635;28;20218;-77
2021/06/12 14:05:15;;;;;;;6.17;5.77;;;29.40;92.30;;;;;;4952590;29;20234;-77
2021/06/12 14:07:42;;;;;;;6.43;5.83;;;29.20;92.40;;;;;;4952736;28;20579;-77
2021/06/12 14:10:09;;;;;;;6.57;6.17;;;29.20;92.50;;;;;;4953514;29;20199;-77
2021/06/12 14:12:36;;;;;;;6.20;5.87;;;29.10;93.20;;;;;;4954195;29;20198;-78
2021/06/12 14:15:02;;;;;;;7.07;6.57;;;29.00;92.90;;;;;;4952514;28;20222;-77
2021/06/12 14:17:29;;;;;;;6.13;5.73;;;28.90;93.30;;;;;;4953390;29;20206;-76
2021/06/12 14:19:56;;;;;;;6.10;5.70;;;28.70;93.40;;;;;;4952526;29;20206;-78
2021/06/12 14:22:23;;;;;;;6.67;6.07;;;28.60;93.00;;;;;;4955175;29;20211;-78
2021/06/12 14:24:49;;;;;;;6.60;6.20;;;28.40;93.20;;;;;;4954060;28;20261;-80
2021/06/12 14:27:15;;;;;;;6.40;6.00;;;28.40;93.80;;;;;;4953778;29;20207;-80
2021/06/12 14:29:45;;;;;;;6.60;6.10;;;28.30;93.20;;;;;;4951191;29;20209;-80
2021/06/12 14:32:12;;;;;;;6.20;5.80;;;28.40;94.60;;;;;;4954163;28;20206;-79
2021/06/12 14:34:38;;;;;;;6.30;5.90;;;28.30;93.30;;;;;;4951214;28;20203;-79
2021/06/12 14:37:06;;;;;;;6.20;5.80;;;28.20;93.20;;;;;;4953633;29;20211;-79
2021/06/12 14:39:32;;;;;;;5.90;5.50;;;28.00;93.00;;;;;;4955035;29;20197;-78
2021/06/12 14:41:59;;;;;;;5.40;5.10;;;28.00;94.10;;;;;;4954876;29;20226;-78
2021/06/12 14:44:26;;;;;;;6.10;5.50;;;27.80;93.60;;;;;;4955566;29;20198;-78
2021/06/12 14:46:54;;;;;;;5.70;5.20;;;27.80;94.70;;;;;;4955105;28;20624;-79
2021/06/12 14:49:20;;;;;;;6.17;5.80;;;27.80;94.90;;;;;;4954887;28;20198;-79
2021/06/12 14:51:47;;;;;;;5.83;5.40;;;27.80;94.00;;;;;;4954259;28;20199;-79
2021/06/12 14:54:15;;;;;;;6.40;5.80;;;27.80;94.00;;;;;;4953844;29;20203;-78
2021/06/12 14:56:41;;;;;;;6.40;5.90;;;27.80;94.70;;;;;;4953946;28;20229;-80
2021/06/12 14:59:08;;;;;;;5.60;5.30;;;27.70;95.00;;;;;;4953962;29;20608;-79
2021/06/12 15:01:34;;;;;;;5.30;5.00;;;27.70;93.80;;;;;;4955094;28;20210;-79
2021/06/12 15:04:01;;;;;;;5.63;5.23;;;27.70;93.50;;;;;;4953794;29;20241;-78
2021/06/12 15:06:27;;;;;;;5.53;5.23;;;27.70;93.40;;;;;;4953808;28;20738;-82
2021/06/12 15:08:54;;;;;;;5.80;5.30;;;27.60;92.00;;;;;;4955028;29;20194;-79
2021/06/12 15:11:21;;;;;;;6.33;5.90;;;27.50;92.50;;;;;;4954024;29;20202;-82
2021/06/12 15:13:48;;;;;;;6.20;5.70;;;27.60;93.10;;;;;;4955192;29;20671;-80
2021/06/12 15:16:15;;;;;;;6.40;6.00;;;27.60;92.50;;;;;;4952115;28;20223;-78
2021/06/12 15:18:41;;;;;;;6.20;5.80;;;27.60;93.20;;;;;;4954857;28;20198;-78
2021/06/12 15:21:07;;;;;;;6.03;5.70;;;27.70;93.10;;;;;;4948050;28;20211;-78
2021/06/12 15:23:34;;;;;;;6.60;6.10;;;27.70;93.20;;;;;;4954630;29;20754;-78
2021/06/12 15:26:02;;;;;;;6.67;6.17;;;27.60;93.50;;;;;;4952805;28;20225;-79
2021/06/12 15:28:30;;;;;;;6.30;5.90;;;27.70;93.50;;;;;;4954155;28;20206;-78
2021/06/12 15:30:57;;;;;;;6.03;5.57;;;27.70;93.80;;;;;;4952484;29;20250;-78
2021/06/12 15:33:24;;;;;;;6.10;5.60;;;27.60;93.30;;;;;;4950170;28;20206;-77
2021/06/12 15:35:51;;;;;;;5.80;5.40;;;27.60;93.40;;;;;;4952621;28;20321;-78
2021/06/12 15:38:17;;;;;;;5.70;5.40;;;27.60;93.90;;;;;;4952296;28;20206;-78
2021/06/12 15:40:44;;;;;;;5.73;5.30;;;27.50;93.60;;;;;;4944686;29;20731;-78
2021/06/12 15:43:11;;;;;;;5.70;5.40;;;27.30;92.30;;;;;;4948426;29;20850;-77
2021/06/12 15:45:39;;;;;;;5.80;5.40;;;27.20;92.70;;;;;;4943204;28;20222;-77
2021/06/12 15:48:06;;;;;;;6.43;6.03;;;27.10;92.80;;;;;;4956637;29;20202;-77
2021/06/12 15:50:33;;;;;;;6.30;5.90;;;27.10;92.80;;;;;;4950060;28;20698;-78
2021/06/12 15:52:59;;;;;;;5.90;5.50;;;27.00;93.00;;;;;;4951638;29;20199;-77
2021/06/12 15:55:27;;;;;;;5.87;5.57;;;27.00;92.90;;;;;;4953981;28;20226;-77
2021/06/12 15:57:54;;;;;;;5.50;5.20;;;27.00;92.80;;;;;;4955911;29;20210;-77
2021/06/12 16:00:21;;;;;;;5.00;4.80;;;26.90;93.00;;;;;;4957252;28;20205;-77
2021/06/12 16:02:49;;;;;;;4.90;4.60;;;26.90;93.80;;;;;;4949483;29;20214;-79
2021/06/12 16:05:17;;;;;;;4.70;4.50;;;26.80;93.80;;;;;;4957317;28;20232;-83
2021/06/12 16:07:43;;;;;;;5.00;4.70;;;26.70;93.30;;;;;;4956437;28;20687;-79
2021/06/12 16:10:10;;;;;;;5.03;4.73;;;26.60;93.70;;;;;;4956097;29;20202;-79
2021/06/12 16:12:40;;;;;;;5.10;4.70;;;26.60;93.40;;;;;;4956122;28;20210;-79
2021/06/12 16:15:09;;;;;;;5.20;4.90;;;26.50;93.90;;;;;;4956832;28;20228;-79
2021/06/12 16:17:36;;;;;;;5.30;5.00;;;26.50;93.90;;;;;;4955860;28;20650;-79
2021/06/12 16:20:05;;;;;;;5.20;4.90;;;26.40;93.80;;;;;;4957931;29;20210;-79
2021/06/12 16:22:31;;;;;;;5.30;5.00;;;26.40;93.80;;;;;;4955446;29;20273;-79
2021/06/12 16:24:57;;;;;;;5.30;5.00;;;26.40;94.30;;;;;;4955789;28;20700;-79
2021/06/12 16:27:24;;;;;;;5.33;5.03;;;26.40;94.50;;;;;;4957353;28;20219;-79
2021/06/12 16:29:50;;;;;;;6.13;5.73;;;26.50;94.80;;;;;;4954766;29;20268;-79
2021/06/12 16:32:16;;;;;;;6.13;5.83;;;26.40;94.70;;;;;;4956411;28;20225;-79
2021/06/12 16:34:43;;;;;;;6.40;6.00;;;26.40;94.50;;;;;;4953904;28;20209;-80
2021/06/12 16:37:10;;;;;;;5.50;5.20;;;26.30;94.70;;;;;;4952223;28;20222;-79
2021/06/12 16:39:37;;;;;;;5.70;5.30;;;26.10;94.60;;;;;;4949608;28;20209;-79
2021/06/12 16:42:04;;;;;;;6.10;5.70;;;25.90;94.70;;;;;;4957283;29;20216;-81
2021/06/12 16:44:30;;;;;;;5.90;5.40;;;25.80;95.30;;;;;;4956299;29;20204;-84
2021/06/12 16:46:57;;;;;;;5.10;4.80;;;25.60;95.00;;;;;;4957598;28;20238;-81
2021/06/12 16:49:23;;;;;;;5.90;5.50;;;25.50;94.80;;;;;;4955294;29;20210;-80
2021/06/12 16:51:49;;;;;;;5.30;5.00;;;25.40;95.40;;;;;;4954556;28;20198;-81
2021/06/12 16:54:36;;;;;;;6.23;5.80;;;25.30;95.30;;;;;;4956508;29;20206;-77
2021/06/12 16:57:09;;;;;;;6.17;5.70;;;25.30;95.30;;;;;;4951926;28;20199;-81
2021/06/12 16:59:36;;;;;;;5.67;5.10;;;25.40;95.60;;;;;;4955187;29;20215;-81
2021/06/12 17:02:03;;;;;;;5.03;4.73;;;25.50;95.90;;;;;;4948734;29;20215;-80
2021/06/12 17:04:29;;;;;;;5.17;4.87;;;25.50;95.60;;;;;;4956545;28;20206;-82
2021/06/12 17:06:56;;;;;;;4.90;4.50;;;25.50;95.50;;;;;;4985181;23;20241;-78
2021/06/12 17:09:24;;;;;;;5.10;4.60;;;25.50;96.30;;;;;;4973280;28;20226;-78
2021/06/12 17:11:51;;;;;;;4.90;4.60;;;25.50;96.50;;;;;;4969567;28;20205;-78